Time;durP1;ratioP1;P1;durP2;ratioP2;P2;SDS_P1;SDS_P2;PMS_P1;PMS_P2;Temp;Humidity;BMP_temperature;BMP_pressure;BME280_temperature;BME280_humidity;BME280_pressure;Samples;Min_cycle;Max_cycle;Signal;HPM_P1;HPM_P2
2022/06/30 00:00:32;;;;;;;10.95;10.10;;;;;;;19.54;73.35;92847.72;5003030;28;20250;-72
2022/06/30 00:02:58;;;;;;;10.90;10.20;;;;;;;19.46;74.52;92859.16;5004550;28;20208;-72
2022/06/30 00:05:23;;;;;;;11.83;10.73;;;;;;;19.26;74.71;92833.47;5004241;28;20171;-73
2022/06/30 00:07:48;;;;;;;11.67;10.70;;;;;;;19.28;75.99;92827.88;5002746;28;20237;-72
2022/06/30 00:10:14;;;;;;;11.63;10.63;;;;;;;19.49;75.63;92858.53;5001753;28;20198;-72
2022/06/30 00:12:40;;;;;;;11.47;10.47;;;;;;;19.36;76.69;92849.00;5003128;28;20230;-72
2022/06/30 00:15:07;;;;;;;11.40;10.60;;;;;;;18.75;77.43;92765.13;5003300;28;20183;-71
2022/06/30 00:17:32;;;;;;;10.90;10.20;;;;;;;19.41;77.41;92862.03;5004229;28;20269;-71
2022/06/30 00:19:58;;;;;;;10.03;9.33;;;;;;;19.43;77.51;92854.53;5003488;28;20184;-72
2022/06/30 00:22:25;;;;;;;11.17;10.47;;;;;;;19.11;78.88;92847.31;4986947;28;20797;-72
2022/06/30 00:24:51;;;;;;;11.90;11.00;;;;;;;18.92;79.49;92823.19;4985717;28;20198;-73
2022/06/30 00:27:16;;;;;;;11.80;10.97;;;;;;;18.92;78.96;92836.44;4983636;28;20254;-72
2022/06/30 00:29:41;;;;;;;11.13;10.33;;;;;;;18.96;79.70;92858.47;4985481;28;20200;-72
2022/06/30 00:32:07;;;;;;;11.70;10.80;;;;;;;18.92;80.46;92854.94;4983808;28;20239;-71
2022/06/30 00:34:32;;;;;;;11.17;10.57;;;;;;;18.71;80.71;92827.69;4982542;28;20206;-73
2022/06/30 00:36:58;;;;;;;10.93;10.13;;;;;;;18.87;80.82;92857.78;4985565;28;20226;-73
2022/06/30 00:39:23;;;;;;;11.10;10.40;;;;;;;18.38;81.88;92805.72;4981744;28;20193;-71
2022/06/30 00:41:49;;;;;;;11.50;10.50;;;;;;;18.42;82.76;92812.69;4983579;28;20270;-71
2022/06/30 00:44:14;;;;;;;12.60;11.50;;;;;;;18.54;82.82;92827.81;4983109;28;20210;-71
2022/06/30 00:46:40;;;;;;;11.30;10.27;;;;;;;18.71;82.54;92854.94;4983654;28;20250;-72
2022/06/30 00:49:07;;;;;;;10.87;10.17;;;;;;;18.43;83.03;92837.22;4982868;28;20205;-72
2022/06/30 00:51:32;;;;;;;11.23;10.33;;;;;;;18.32;83.10;92836.78;4982994;28;20240;-72
2022/06/30 00:54:00;;;;;;;10.87;9.87;;;;;;;18.47;83.04;92854.00;4981710;28;20187;-71
2022/06/30 00:56:26;;;;;;;11.97;10.80;;;;;;;18.45;82.96;92853.56;4984632;28;20222;-71
2022/06/30 00:58:53;;;;;;;11.03;10.33;;;;;;;18.37;83.73;92854.34;4981751;28;20217;-74
2022/06/30 01:01:19;;;;;;;10.77;9.80;;;;;;;17.91;84.29;92789.16;4981319;28;20255;-70
2022/06/30 01:03:45;;;;;;;10.63;9.93;;;;;;;18.52;83.78;92851.19;4981649;28;20186;-72
2022/06/30 01:06:11;;;;;;;11.60;10.70;;;;;;;17.81;83.55;92775.50;4982930;28;20236;-72
2022/06/30 01:08:36;;;;;;;10.53;9.93;;;;;;;17.93;84.40;92792.22;4982783;28;20221;-72
2022/06/30 01:13:48;;;;;;;11.20;10.30;;;;;;;18.32;84.23;92849.25;4983386;28;20226;-72
2022/06/30 01:16:14;;;;;;;11.53;10.73;;;;;;;17.74;85.71;92789.25;4981592;28;20250;-72
2022/06/30 01:18:39;;;;;;;11.30;10.50;;;;;;;17.63;85.76;92780.13;4980162;28;20194;-71
2022/06/30 01:21:05;;;;;;;12.23;11.07;;;;;;;18.03;86.04;92851.88;4979917;28;20243;-72
2022/06/30 01:23:31;;;;;;;11.17;10.40;;;;;;;17.86;85.88;92820.25;4983351;28;20217;-71
2022/06/30 01:25:57;;;;;;;11.83;10.63;;;;;;;17.95;86.14;92839.47;4979394;28;20252;-72
2022/06/30 01:28:22;;;;;;;11.37;10.57;;;;;;;17.80;86.05;92813.59;4981193;28;20661;-73
2022/06/30 01:30:47;;;;;;;12.00;11.10;;;;;;;17.90;86.15;92840.41;4978423;28;20236;-72
2022/06/30 01:33:13;;;;;;;10.73;10.03;;;;;;;17.60;86.13;92796.59;4983820;28;20236;-71
2022/06/30 01:35:39;;;;;;;11.03;10.23;;;;;;;17.52;86.26;92771.78;4982332;28;20192;-71
2022/06/30 01:38:05;;;;;;;11.67;10.63;;;;;;;17.67;87.58;92817.19;4980908;28;20197;-71
2022/06/30 01:40:35;;;;;;;12.53;11.73;;;;;;;17.77;87.50;92840.63;4980918;28;20184;-72
2022/06/30 01:43:02;;;;;;;12.40;11.40;;;;;;;17.77;86.83;92830.84;4979580;28;20757;-73
2022/06/30 01:45:27;;;;;;;13.40;12.57;;;;;;;17.57;87.26;92808.53;4981241;28;20185;-72
2022/06/30 01:47:53;;;;;;;12.33;11.33;;;;;;;17.41;87.31;92781.09;4982031;28;20283;-72
2022/06/30 01:50:21;;;;;;;11.90;10.80;;;;;;;17.60;87.79;92818.47;4982408;28;20194;-72
2022/06/30 01:52:47;;;;;;;11.50;10.70;;;;;;;17.75;87.22;92829.59;4980923;28;20221;-71
2022/06/30 01:55:13;;;;;;;10.30;9.63;;;;;;;17.34;87.00;92764.19;4985755;28;20192;-72
2022/06/30 01:57:39;;;;;;;11.90;11.00;;;;;;;17.66;87.07;92826.22;4980877;28;20217;-71
2022/06/30 02:00:07;;;;;;;12.20;11.07;;;;;;;17.63;86.77;92803.88;4980691;28;20186;-73
2022/06/30 02:02:32;;;;;;;11.00;10.10;;;;;;;17.52;86.38;92786.84;4982126;28;20239;-72
2022/06/30 02:04:58;;;;;;;10.80;9.90;;;;;;;17.59;86.49;92824.84;4980898;28;20256;-70
2022/06/30 02:07:23;;;;;;;11.73;10.70;;;;;;;17.54;86.35;92832.19;4967522;28;20236;-72
2022/06/30 02:09:51;;;;;;;11.97;11.17;;;;;;;17.57;85.66;92827.03;4966750;29;20193;-71
2022/06/30 02:15:06;;;;;;;12.17;11.07;;;;;;;17.43;86.95;92830.94;4951474;29;20208;-72
2022/06/30 02:17:32;;;;;;;11.20;10.40;;;;;;;17.18;86.86;92814.03;4949831;29;20230;-72
2022/06/30 02:19:57;;;;;;;10.20;9.53;;;;;;;17.27;85.69;92822.75;4950576;29;20212;-72
2022/06/30 02:22:23;;;;;;;10.50;9.73;;;;;;;17.35;85.71;92832.47;4951476;29;20466;-72
2022/06/30 02:24:48;;;;;;;10.20;9.53;;;;;;;17.33;85.96;92825.97;4951932;29;20236;-71
2022/06/30 02:27:14;;;;;;;10.73;10.13;;;;;;;17.29;86.94;92839.03;4960997;28;20221;-72
2022/06/30 02:29:39;;;;;;;10.40;9.50;;;;;;;17.33;87.12;92842.59;4958785;29;20190;-72
2022/06/30 02:32:05;;;;;;;12.03;10.83;;;;;;;17.09;87.02;92796.72;4959496;28;20230;-72
2022/06/30 02:34:31;;;;;;;11.10;10.40;;;;;;;17.30;87.67;92839.81;4960345;29;20208;-72
2022/06/30 02:36:57;;;;;;;11.73;10.67;;;;;;;17.39;87.98;92838.69;4967733;28;20280;-73
2022/06/30 02:39:22;;;;;;;13.03;11.93;;;;;;;17.32;88.16;92830.47;4970775;28;20436;-72
2022/06/30 02:41:48;;;;;;;11.40;10.50;;;;;;;16.73;88.29;92757.47;4958820;28;20230;-72
2022/06/30 02:44:13;;;;;;;12.57;11.67;;;;;;;17.17;88.12;92830.19;4951566;29;20281;-71
2022/06/30 02:46:39;;;;;;;12.87;11.87;;;;;;;16.73;88.48;92797.03;4953324;28;20224;-71
2022/06/30 02:49:04;;;;;;;10.83;10.13;;;;;;;16.54;88.59;92762.31;4960294;28;20201;-72
2022/06/30 02:51:30;;;;;;;10.40;9.70;;;;;;;17.01;88.00;92823.88;4965437;28;20212;-73
2022/06/30 02:53:55;;;;;;;11.10;10.30;;;;;;;17.04;88.01;92829.28;4970308;28;20218;-72
2022/06/30 02:56:21;;;;;;;11.93;11.03;;;;;;;16.90;87.47;92812.84;4962539;28;20226;-72
2022/06/30 02:58:47;;;;;;;12.53;11.63;;;;;;;17.15;87.46;92843.69;4955327;29;20192;-72
2022/06/30 03:01:13;;;;;;;11.33;10.53;;;;;;;17.11;87.43;92840.16;4957313;28;20226;-71
2022/06/30 03:03:39;;;;;;;11.13;10.40;;;;;;;17.47;86.26;92859.06;4962829;29;20253;-73
2022/06/30 03:06:05;;;;;;;12.27;11.07;;;;;;;17.18;85.19;92782.38;4963670;28;20289;-72
2022/06/30 03:08:30;;;;;;;11.33;10.43;;;;;;;17.92;84.25;92848.03;4988737;28;20220;-72
2022/06/30 03:10:55;;;;;;;16.43;10.17;;;;;;;18.29;82.82;92839.31;4990599;28;20233;-73
2022/06/30 03:13:21;;;;;;;11.10;10.27;;;;;;;19.14;79.23;92857.25;4985978;28;20195;-72
2022/06/30 03:15:48;;;;;;;11.13;10.40;;;;;;;19.92;73.27;92850.88;4981673;28;20230;-72
2022/06/30 03:18:14;;;;;;;11.53;10.40;;;;;;;20.30;70.98;92835.47;4982634;28;20202;-72
2022/06/30 03:20:39;;;;;;;10.80;10.00;;;;;;;21.44;66.40;92821.72;4983060;28;20982;-72
2022/06/30 03:23:04;;;;;;;10.40;9.67;;;;;;;22.61;62.34;92823.50;4983738;28;20227;-72
2022/06/30 03:25:30;;;;;;;11.23;10.23;;;;;;;22.82;60.65;92855.94;4986311;28;20187;-72
2022/06/30 03:27:55;;;;;;;10.45;9.70;;;;;;;22.60;61.85;92859.97;4981845;28;20183;-73
2022/06/30 03:30:21;;;;;;;11.48;10.70;;;;;;;22.19;63.83;92857.84;4980785;28;20210;-73
2022/06/30 03:32:46;;;;;;;11.25;10.23;;;;;;;21.85;65.35;92861.94;4982436;28;20194;-73
2022/06/30 03:35:11;;;;;;;10.10;9.45;;;;;;;21.60;66.12;92828.63;4982813;28;20182;-72
2022/06/30 03:37:37;;;;;;;11.85;10.88;;;;;;;21.63;65.85;92821.84;4980448;28;20237;-73
2022/06/30 03:40:03;;;;;;;10.90;9.95;;;;;;;23.25;60.92;92853.81;4986111;28;20657;-72
2022/06/30 03:42:29;;;;;;;10.70;10.00;;;;;;;23.38;59.46;92817.91;4980942;28;20233;-73
2022/06/30 03:44:54;;;;;;;10.25;9.55;;;;;;;24.07;58.12;92838.25;4987297;28;20183;-72
2022/06/30 03:47:20;;;;;;;10.38;9.50;;;;;;;22.94;60.04;92775.91;4984440;28;20304;-73
2022/06/30 03:49:45;;;;;;;10.27;9.43;;;;;;;22.27;63.54;92845.50;4984373;28;20218;-72
2022/06/30 03:52:10;;;;;;;9.65;9.02;;;;;;;22.53;64.23;92865.16;4985915;28;20223;-73
2022/06/30 03:54:36;;;;;;;10.05;9.45;;;;;;;22.18;65.05;92827.81;4986357;28;20192;-72
2022/06/30 03:57:01;;;;;;;10.57;9.82;;;;;;;22.81;63.85;92862.34;4984841;28;20237;-73
2022/06/30 03:59:27;;;;;;;10.82;9.98;;;;;;;23.43;61.35;92870.94;4984893;28;20290;-70
2022/06/30 04:01:52;;;;;;;11.45;10.45;;;;;;;23.98;58.52;92866.28;4997626;28;20229;-69
2022/06/30 04:04:18;;;;;;;10.43;9.70;;;;;;;23.85;59.87;92867.53;5005720;28;20254;-69
2022/06/30 04:06:43;;;;;;;10.75;9.57;;;;;;;23.23;61.25;92864.03;5000642;28;20239;-70
2022/06/30 04:09:09;;;;;;;10.80;9.90;;;;;;;22.38;65.46;92862.47;4999026;28;20206;-70
2022/06/30 04:11:34;;;;;;;12.23;11.23;;;;;;;22.55;65.79;92872.78;5000312;28;20232;-69
2022/06/30 04:14:00;;;;;;;10.77;10.13;;;;;;;23.55;62.10;92870.78;5000764;28;20197;-69
2022/06/30 04:16:25;;;;;;;11.57;10.57;;;;;;;23.49;62.10;92871.41;5003672;28;20232;-69
2022/06/30 04:18:50;;;;;;;12.00;10.82;;;;;;;22.94;63.68;92840.56;5002697;28;20210;-74
2022/06/30 04:21:16;;;;;;;12.05;11.05;;;;;;;22.72;64.66;92862.56;5001295;28;20293;-72
2022/06/30 04:23:43;;;;;;;11.38;10.55;;;;;;;22.65;65.30;92869.59;5002401;28;21241;-75
2022/06/30 04:26:08;;;;;;;10.95;10.15;;;;;;;22.83;64.07;92866.22;5001550;28;20221;-74
2022/06/30 04:28:34;;;;;;;11.68;10.88;;;;;;;22.35;65.98;92847.22;5004286;28;20192;-73
2022/06/30 04:34:00;;;;;;;11.93;11.02;;;;;;;22.88;63.49;92843.88;4989970;28;20304;-75
2022/06/30 04:36:25;;;;;;;12.32;11.32;;;;;;;23.39;63.16;92864.75;4999728;28;20240;-77
2022/06/30 04:38:50;;;;;;;10.88;10.18;;;;;;;25.47;56.19;92862.81;5003472;28;20201;-76
2022/06/30 04:41:25;;;;;;;13.23;11.98;;;;;;;24.40;59.51;92869.66;5005868;28;20231;-74
2022/06/30 04:43:55;;;;;;;12.48;11.23;;;;;;;23.84;61.02;92863.31;5001085;28;20257;-74
2022/06/30 04:46:20;;;;;;;12.05;11.00;;;;;;;23.42;61.96;92858.75;5002463;28;21129;-75
2022/06/30 04:48:46;;;;;;;15.10;11.00;;;;;;;23.25;63.79;92877.78;4988529;28;20289;-76
2022/06/30 04:51:11;;;;;;;13.57;12.23;;;;;;;22.83;65.19;92865.44;5002262;28;20223;-74
2022/06/30 04:53:37;;;;;;;12.90;11.88;;;;;;;22.48;67.35;92881.34;5002913;28;20248;-75
2022/06/30 04:56:03;;;;;;;13.48;12.18;;;;;;;21.98;69.35;92865.28;5004499;28;20228;-75
2022/06/30 04:58:28;;;;;;;15.90;14.52;;;;;;;21.74;69.92;92878.72;5004410;28;20178;-76
2022/06/30 05:00:54;;;;;;;14.32;12.93;;;;;;;21.68;70.81;92861.47;5005107;28;20273;-76
2022/06/30 05:03:19;;;;;;;14.18;12.80;;;;;;;21.65;70.85;92862.91;5005572;28;20211;-75
2022/06/30 05:05:44;;;;;;;14.57;13.20;;;;;;;21.98;68.99;92876.72;5005231;28;20256;-75
2022/06/30 05:08:10;;;;;;;13.98;12.85;;;;;;;23.16;64.34;92881.78;5005097;28;20314;-75
2022/06/30 05:10:35;;;;;;;14.93;13.35;;;;;;;22.86;65.84;92884.16;5003124;28;20206;-75
2022/06/30 05:13:01;;;;;;;14.88;13.43;;;;;;;23.52;63.61;92884.03;5004878;28;20193;-73
2022/06/30 05:15:26;;;;;;;14.05;12.65;;;;;;;26.47;53.13;92869.63;5004178;28;20173;-73
2022/06/30 05:17:52;;;;;;;12.93;11.80;;;;;;;30.42;43.11;92904.78;5005220;28;20167;-72
2022/06/30 05:20:17;;;;;;;13.65;12.23;;;;;;;29.07;44.54;92871.44;5002414;28;20247;-74
2022/06/30 05:22:42;;;;;;;12.38;11.27;;;;;;;30.89;39.95;92910.28;5000246;28;20247;-74
2022/06/30 05:27:52;;;;;;;14.05;12.40;;;;;;;27.44;48.14;92902.91;5003679;28;20222;-71
2022/06/30 05:30:18;;;;;;;14.02;11.55;;;;;;;25.85;53.42;92899.97;5001739;28;20191;-75
2022/06/30 05:32:44;;;;;;;14.00;12.05;;;;;;;25.21;55.23;92888.44;5003785;28;20234;-74
2022/06/30 05:35:10;;;;;;;13.57;12.15;;;;;;;25.86;54.28;92902.28;5000912;28;20354;-73
2022/06/30 05:37:35;;;;;;;12.63;11.63;;;;;;;27.74;49.15;92889.97;5001661;28;20234;-76
2022/06/30 05:40:01;;;;;;;13.45;11.23;;;;;;;30.64;41.56;92887.31;5000812;28;20667;-76
2022/06/30 05:42:27;;;;;;;12.02;11.02;;;;;;;33.76;35.67;92931.31;4999286;28;20229;-77
2022/06/30 05:44:52;;;;;;;13.20;11.88;;;;;;;35.56;31.50;92923.50;5001348;28;20191;-76
2022/06/30 05:47:17;;;;;;;13.15;10.15;;;;;;;36.43;30.32;92927.75;5001788;28;20223;-76
2022/06/30 05:49:43;;;;;;;10.10;9.30;;;;;;;38.31;27.34;92939.19;4999064;28;20208;-77
2022/06/30 05:52:08;;;;;;;10.93;9.20;;;;;;;38.30;26.30;92954.03;4999481;28;20227;-76
2022/06/30 05:54:34;;;;;;;9.85;9.05;;;;;;;39.24;25.88;92959.13;5002251;28;20184;-74
2022/06/30 05:56:59;;;;;;;10.20;9.30;;;;;;;39.22;25.68;92934.22;4999283;28;20232;-74
2022/06/30 05:59:25;;;;;;;13.70;9.52;;;;;;;40.65;23.48;92943.75;5000144;28;20215;-73
2022/06/30 06:01:51;;;;;;;10.10;9.20;;;;;;;40.38;23.86;92951.28;4999432;28;20235;-73
2022/06/30 06:04:16;;;;;;;12.45;8.93;;;;;;;41.13;22.65;92956.44;5001417;28;20216;-76
2022/06/30 06:06:42;;;;;;;9.98;9.27;;;;;;;41.46;22.31;92967.41;5001186;28;20223;-72
2022/06/30 06:09:07;;;;;;;16.45;9.10;;;;;;;39.20;24.68;92953.78;5001613;28;20191;-74
2022/06/30 06:11:33;;;;;;;9.52;8.82;;;;;;;38.45;25.98;92949.59;5001535;28;20235;-74
2022/06/30 06:13:59;;;;;;;10.30;9.27;;;;;;;39.58;23.92;92973.38;4998692;28;20180;-73
2022/06/30 06:16:25;;;;;;;11.52;10.35;;;;;;;39.88;24.34;92930.72;5000053;28;20223;-74
2022/06/30 06:18:51;;;;;;;12.10;9.02;;;;;;;40.79;22.54;92965.06;5002752;28;20191;-76
2022/06/30 06:21:17;;;;;;;9.63;8.65;;;;;;;41.30;22.79;92970.53;5003360;28;20226;-75
2022/06/30 06:23:43;;;;;;;9.35;8.40;;;;;;;41.16;22.07;92971.97;4999586;28;20239;-75
2022/06/30 06:26:08;;;;;;;10.63;9.07;;;;;;;41.26;21.75;92954.25;5001005;28;20254;-74
2022/06/30 06:31:17;;;;;;;9.52;8.73;;;;;;;36.06;28.45;92950.16;5004380;28;20233;-74
2022/06/30 06:33:45;;;;;;;9.35;8.57;;;;;;;38.53;25.89;92950.84;5007054;28;20216;-73
2022/06/30 06:36:11;;;;;;;9.70;8.75;;;;;;;38.90;25.63;92962.00;5008109;28;20231;-74
2022/06/30 06:38:36;;;;;;;9.30;8.50;;;;;;;40.39;22.75;92959.03;5006867;28;20203;-75
2022/06/30 06:41:02;;;;;;;10.82;8.95;;;;;;;39.38;24.63;92953.09;5007461;28;20236;-74
2022/06/30 06:43:28;;;;;;;9.80;8.90;;;;;;;41.04;21.98;92959.19;5006615;28;20222;-75
2022/06/30 06:45:53;;;;;;;9.18;8.48;;;;;;;38.45;25.74;92948.81;5006389;28;20243;-74
2022/06/30 06:48:19;;;;;;;9.35;8.60;;;;;;;37.97;26.38;92947.41;5008404;28;20193;-75
2022/06/30 06:50:44;;;;;;;9.38;8.35;;;;;;;39.59;24.35;92946.78;5007236;28;20258;-73
2022/06/30 06:53:09;;;;;;;9.55;8.52;;;;;;;36.84;27.88;92938.63;5008969;28;20195;-73
2022/06/30 06:55:35;;;;;;;10.15;9.18;;;;;;;33.68;33.16;92925.22;5007671;28;20184;-72
2022/06/30 06:58:00;;;;;;;10.27;9.35;;;;;;;30.55;38.82;92908.56;5007256;28;20200;-75
2022/06/30 07:00:25;;;;;;;11.40;10.32;;;;;;;29.58;41.44;92908.59;5004643;28;20214;-73
2022/06/30 07:02:51;;;;;;;13.27;10.82;;;;;;;29.00;42.50;92906.34;5008285;28;20278;-74
2022/06/30 07:05:16;;;;;;;12.02;10.82;;;;;;;28.42;45.18;92907.84;5008368;28;20210;-74
2022/06/30 07:07:42;;;;;;;11.00;10.20;;;;;;;27.68;46.89;92907.59;5010658;28;20250;-74
2022/06/30 07:10:08;;;;;;;11.05;10.15;;;;;;;27.51;45.38;92919.00;5010333;28;20207;-73
2022/06/30 07:12:34;;;;;;;11.38;10.45;;;;;;;26.25;49.40;92898.13;5007937;28;20235;-74
2022/06/30 07:15:00;;;;;;;12.02;10.88;;;;;;;25.88;52.73;92902.69;5004851;28;20183;-73
2022/06/30 07:17:26;;;;;;;12.70;11.50;;;;;;;26.49;49.44;92902.94;5003883;28;20212;-73
2022/06/30 07:19:51;;;;;;;12.40;11.40;;;;;;;26.64;47.90;92907.31;5007797;28;20185;-73
2022/06/30 07:22:19;;;;;;;12.93;12.02;;;;;;;26.08;51.56;92904.06;5007481;28;20253;-74
2022/06/30 07:24:45;;;;;;;12.77;11.55;;;;;;;25.96;52.15;92904.28;5006690;28;20285;-73
2022/06/30 07:27:11;;;;;;;12.63;11.38;;;;;;;26.42;51.37;92907.44;5008289;28;20223;-74
2022/06/30 07:29:36;;;;;;;13.23;11.32;;;;;;;26.43;51.73;92904.41;5007539;28;20191;-74
2022/06/30 07:32:02;;;;;;;12.23;11.23;;;;;;;26.31;51.97;92891.28;5006477;28;20258;-73
2022/06/30 07:34:27;;;;;;;12.80;11.70;;;;;;;25.65;51.99;92891.31;5008260;28;20198;-72
2022/06/30 07:36:53;;;;;;;11.85;10.77;;;;;;;25.79;52.82;92894.16;5004134;28;20296;-72
2022/06/30 07:39:18;;;;;;;13.07;11.95;;;;;;;25.90;52.76;92868.28;5009414;28;20195;-76
2022/06/30 07:41:44;;;;;;;15.13;12.77;;;;;;;26.15;53.86;92860.56;5007967;28;20226;-77
2022/06/30 07:44:09;;;;;;;12.98;11.98;;;;;;;26.40;52.39;92890.97;5006272;28;20195;-75
2022/06/30 07:46:35;;;;;;;14.32;13.05;;;;;;;26.28;52.67;92896.63;4993390;28;20872;-74
2022/06/30 07:49:01;;;;;;;13.27;11.95;;;;;;;26.14;53.08;92881.19;5003331;28;20190;-75
2022/06/30 07:51:26;;;;;;;13.43;12.18;;;;;;;25.95;51.77;92870.63;5004039;28;20223;-75
2022/06/30 07:53:51;;;;;;;14.82;13.40;;;;;;;25.88;51.84;92900.00;5001951;28;20195;-75
2022/06/30 07:56:17;;;;;;;12.98;11.75;;;;;;;25.60;52.21;92899.69;5002860;28;20231;-75
2022/06/30 07:58:43;;;;;;;14.07;11.65;;;;;;;25.55;52.09;92896.53;5003793;28;20484;-75
2022/06/30 08:01:08;;;;;;;12.68;11.68;;;;;;;26.02;51.51;92902.09;5005438;28;20228;-75
2022/06/30 08:03:33;;;;;;;12.80;11.73;;;;;;;26.61;51.09;92899.22;5004056;28;20300;-74
2022/06/30 08:05:59;;;;;;;14.10;12.93;;;;;;;26.35;53.39;92902.03;5000644;28;21247;-76
2022/06/30 08:08:24;;;;;;;12.52;11.43;;;;;;;26.19;53.00;92888.91;5005491;28;20238;-75
2022/06/30 08:10:50;;;;;;;13.63;12.43;;;;;;;25.42;53.52;92898.69;5005111;28;20243;-76
2022/06/30 08:13:15;;;;;;;14.43;12.95;;;;;;;25.75;52.32;92896.03;5002636;28;20188;-76
2022/06/30 08:15:41;;;;;;;12.38;11.30;;;;;;;26.11;52.30;92875.78;5004681;28;20224;-76
2022/06/30 08:18:07;;;;;;;12.73;11.73;;;;;;;26.42;51.80;92894.06;5005113;28;20206;-75
2022/06/30 08:20:34;;;;;;;13.43;12.05;;;;;;;26.73;50.89;92886.31;5005196;28;20214;-76
2022/06/30 08:22:59;;;;;;;14.93;12.93;;;;;;;25.94;50.80;92882.50;5002670;28;20218;-76
2022/06/30 08:25:25;;;;;;;12.52;11.40;;;;;;;26.45;52.79;92886.06;5006617;28;20189;-75
2022/06/30 08:27:51;;;;;;;11.35;10.43;;;;;;;27.12;50.36;92899.22;5001565;28;20202;-76
2022/06/30 08:30:16;;;;;;;12.98;11.68;;;;;;;27.00;47.14;92873.50;5006490;28;20187;-75
2022/06/30 08:32:43;;;;;;;10.65;9.93;;;;;;;26.76;48.42;92881.38;5002562;28;20212;-75
2022/06/30 08:35:08;;;;;;;10.65;9.63;;;;;;;26.42;48.98;92894.84;4985974;28;20251;-75
2022/06/30 08:37:34;;;;;;;10.68;9.88;;;;;;;26.39;50.23;92898.25;5001753;28;20259;-75
2022/06/30 08:42:46;;;;;;;15.85;10.50;;;;;;;26.82;51.50;92898.66;5001975;28;20231;-76
2022/06/30 08:45:19;;;;;;;10.52;9.68;;;;;;;27.29;47.38;92904.72;5003021;28;20191;-76
2022/06/30 08:47:46;;;;;;;11.48;10.15;;;;;;;27.06;46.91;92900.72;5003037;28;20223;-76
2022/06/30 08:50:14;;;;;;;12.88;10.63;;;;;;;26.95;49.38;92900.66;5004221;28;20188;-75
2022/06/30 08:52:58;;;;;;;10.55;9.70;;;;;;;27.10;50.76;92899.59;5004904;28;20219;-75
2022/06/30 08:55:28;;;;;;;11.77;10.80;;;;;;;27.15;49.85;92895.78;5003944;28;20191;-75
2022/06/30 08:57:57;;;;;;;11.70;10.43;;;;;;;26.81;50.06;92887.16;5005181;28;20180;-76
2022/06/30 09:00:23;;;;;;;11.65;10.35;;;;;;;27.00;50.92;92899.53;5002739;28;20267;-76
2022/06/30 09:02:49;;;;;;;10.80;10.05;;;;;;;27.51;46.42;92902.91;5004071;28;20219;-76
2022/06/30 09:05:15;;;;;;;11.77;10.85;;;;;;;26.91;48.56;92888.38;5003893;28;20219;-76
2022/06/30 09:07:41;;;;;;;10.52;9.63;;;;;;;27.35;48.74;92895.16;5000965;28;20246;-80
2022/06/30 09:10:07;;;;;;;10.50;9.63;;;;;;;27.34;51.03;92898.22;5003268;28;20183;-75
2022/06/30 09:12:33;;;;;;;11.05;10.15;;;;;;;27.59;47.24;92888.41;5002786;28;20291;-77
2022/06/30 09:14:59;;;;;;;10.23;9.50;;;;;;;27.57;49.70;92896.03;5002890;28;20175;-76
2022/06/30 09:17:27;;;;;;;9.60;8.93;;;;;;;27.55;43.52;92891.06;5000672;28;20224;-78
2022/06/30 09:20:00;;;;;;;10.88;9.85;;;;;;;27.46;44.07;92896.00;5001503;28;20179;-76
2022/06/30 09:22:29;;;;;;;12.43;8.90;;;;;;;27.47;43.76;92894.09;5001067;28;20294;-76
2022/06/30 09:25:15;;;;;;;11.80;8.15;;;;;;;26.81;46.43;92881.00;5000729;28;20189;-77
2022/06/30 09:27:50;;;;;;;10.73;9.65;;;;;;;26.97;47.89;92863.53;4998858;28;20299;-78
2022/06/30 09:30:20;;;;;;;10.50;9.48;;;;;;;27.65;45.53;92886.88;5004202;28;20255;-78
2022/06/30 09:32:49;;;;;;;10.65;9.27;;;;;;;27.86;43.44;92892.34;5000622;28;20204;-78
2022/06/30 09:35:15;;;;;;;10.05;9.05;;;;;;;27.63;44.29;92878.44;5002316;28;20215;-77
2022/06/30 09:37:41;;;;;;;10.00;9.00;;;;;;;27.87;45.93;92883.94;5001972;28;20311;-77
2022/06/30 09:40:08;;;;;;;10.77;9.73;;;;;;;27.82;46.10;92891.53;5000183;28;20200;-76
2022/06/30 09:42:43;;;;;;;12.27;9.85;;;;;;;27.25;45.95;92881.69;5000528;28;20233;-76
2022/06/30 09:45:15;;;;;;;9.98;8.98;;;;;;;27.10;48.12;92872.78;5005337;28;20194;-75
2022/06/30 09:47:55;;;;;;;9.95;9.15;;;;;;;27.05;46.00;92881.19;4980308;28;20232;-79
2022/06/30 09:50:21;;;;;;;11.05;10.07;;;;;;;27.17;46.29;92882.78;5003472;28;20219;-75
2022/06/30 09:53:10;;;;;;;11.27;10.27;;;;;;;27.80;45.59;92877.75;4999416;28;20991;-75
2022/06/30 09:55:47;;;;;;;10.43;9.63;;;;;;;28.02;43.38;92876.69;4998599;28;20196;-75
2022/06/30 09:58:36;;;;;;;9.55;8.75;;;;;;;28.03;42.72;92878.25;5002952;28;20199;-76
2022/06/30 10:01:03;;;;;;;9.85;9.13;;;;;;;28.11;42.43;92885.91;4995029;28;20291;-75
2022/06/30 10:03:28;;;;;;;10.27;9.27;;;;;;;27.99;44.30;92869.38;5002472;28;20219;-78
2022/06/30 10:06:11;;;;;;;9.18;8.48;;;;;;;27.89;43.05;92862.09;5000326;28;20231;-77
2022/06/30 10:08:38;;;;;;;8.98;8.30;;;;;;;28.10;43.51;92880.94;4999426;28;20227;-74
2022/06/30 10:11:04;;;;;;;10.15;9.30;;;;;;;28.25;42.77;92877.13;4998792;28;20224;-74
2022/06/30 10:13:34;;;;;;;9.48;8.57;;;;;;;28.22;42.01;92870.59;5002102;28;20191;-75
2022/06/30 10:16:02;;;;;;;8.60;7.95;;;;;;;28.22;42.20;92872.50;5000180;28;20304;-75
2022/06/30 10:18:29;;;;;;;9.60;8.75;;;;;;;28.36;44.11;92877.16;5000361;28;20206;-74
2022/06/30 10:20:55;;;;;;;9.38;8.68;;;;;;;28.48;43.75;92861.47;4999764;28;20226;-74
2022/06/30 10:23:21;;;;;;;9.07;8.43;;;;;;;28.50;42.69;92872.56;4999096;28;20270;-74
2022/06/30 10:25:48;;;;;;;8.98;8.27;;;;;;;28.11;41.87;92863.69;5001054;28;20236;-74
2022/06/30 10:28:18;;;;;;;10.43;9.38;;;;;;;28.28;41.64;92854.88;5001506;28;20191;-73
2022/06/30 10:30:47;;;;;;;9.40;8.80;;;;;;;28.41;43.10;92869.47;5000291;28;20283;-73
2022/06/30 10:33:35;;;;;;;8.93;7.95;;;;;;;28.63;39.37;92871.03;5002656;28;20210;-73
2022/06/30 10:36:14;;;;;;;9.23;8.40;;;;;;;28.39;42.91;92866.38;5001314;28;20231;-73
2022/06/30 10:38:59;;;;;;;9.73;8.93;;;;;;;28.70;38.84;92854.16;4989418;28;20282;-73
2022/06/30 10:41:25;;;;;;;9.10;8.50;;;;;;;28.64;39.86;92859.13;4991545;28;20230;-74
2022/06/30 10:44:03;;;;;;;10.25;9.00;;;;;;;28.84;38.95;92854.16;4984439;28;20291;-73
2022/06/30 10:46:29;;;;;;;11.05;9.45;;;;;;;28.83;40.44;92850.69;5002461;28;20227;-73
2022/06/30 10:48:55;;;;;;;8.50;7.90;;;;;;;28.48;42.36;92848.03;5005143;28;20213;-71
2022/06/30 10:51:22;;;;;;;9.95;9.02;;;;;;;28.77;39.76;92852.22;5001698;28;20223;-73
2022/06/30 10:53:50;;;;;;;8.80;8.05;;;;;;;28.83;40.11;92845.31;5000329;28;20267;-73
2022/06/30 10:56:16;;;;;;;9.65;8.73;;;;;;;28.67;40.70;92830.75;5002528;28;20230;-73
2022/06/30 10:59:04;;;;;;;8.15;7.55;;;;;;;28.49;42.02;92830.75;5001393;28;20202;-73
2022/06/30 11:01:29;;;;;;;9.85;8.93;;;;;;;28.80;40.90;92832.63;4999844;28;20242;-73
2022/06/30 11:03:56;;;;;;;8.88;8.02;;;;;;;28.91;39.89;92844.16;5004904;28;20274;-74
2022/06/30 11:06:23;;;;;;;8.95;8.25;;;;;;;28.38;40.49;92813.81;4997582;28;20228;-73
2022/06/30 11:08:49;;;;;;;9.02;8.32;;;;;;;28.71;41.63;92828.81;5002060;28;20234;-74
2022/06/30 11:11:20;;;;;;;8.35;7.75;;;;;;;28.84;42.06;92833.38;5002059;28;20243;-72
2022/06/30 11:14:01;;;;;;;8.32;7.75;;;;;;;28.68;40.88;92813.44;5002086;28;20192;-76
2022/06/30 11:16:27;;;;;;;9.18;8.48;;;;;;;28.58;41.53;92806.94;5002721;28;20255;-74
2022/06/30 11:18:53;;;;;;;9.65;8.95;;;;;;;29.04;41.97;92818.41;5001720;28;20353;-75
2022/06/30 11:21:20;;;;;;;8.63;8.07;;;;;;;29.18;40.90;92806.88;5003998;28;20225;-73
2022/06/30 11:23:47;;;;;;;9.10;8.43;;;;;;;28.90;39.42;92794.22;5004690;28;20356;-73
2022/06/30 11:29:01;;;;;;;8.55;8.00;;;;;;;28.95;40.64;92812.63;5006354;28;20295;-74
2022/06/30 11:31:32;;;;;;;8.82;8.30;;;;;;;29.02;42.99;92818.00;5005577;28;20227;-77
2022/06/30 11:34:02;;;;;;;8.60;7.88;;;;;;;29.17;40.04;92816.84;5004837;28;20264;-75
2022/06/30 11:36:27;;;;;;;9.07;8.43;;;;;;;29.27;40.66;92810.69;5004680;28;20222;-74
2022/06/30 11:38:58;;;;;;;8.13;7.63;;;;;;;29.39;40.40;92815.63;5005443;28;20202;-73